Time;durP1;ratioP1;P1;durP2;ratioP2;P2;SDS_P1;SDS_P2;PMS_P1;PMS_P2;Temp;Humidity;BMP_temperature;BMP_pressure;BME280_temperature;BME280_humidity;BME280_pressure;Samples;Min_cycle;Max_cycle;Signal;HPM_P1;HPM_P2
2022/06/11 00:02:14;;;;;;;28.92;13.35;;;;;;;;;;6178633;28;20311;-78
2022/06/11 00:05:16;;;;;;;20.35;9.65;;;;;;;;;;6180031;28;20047;-77
2022/06/11 00:08:18;;;;;;;37.05;17.83;;;;;;;;;;6177361;28;20360;-79
2022/06/11 00:11:20;;;;;;;33.55;16.23;;;;;;;;;;6176991;28;20080;-79
2022/06/11 00:14:25;;;;;;;18.52;9.15;;;;;;;;;;6177565;28;20047;-79
2022/06/11 00:17:27;;;;;;;17.70;8.07;;;;;;;;;;6180829;28;20341;-79
2022/06/11 00:20:30;;;;;;;8.23;3.03;;;;;;;;;;6222401;28;20229;-79
2022/06/11 00:23:32;;;;;;;16.98;7.82;;;;;;;;;;6246155;28;20053;-79
2022/06/11 00:26:34;;;;;;;18.38;8.40;;;;;;;;;;6247704;28;20047;-79
2022/06/11 00:29:40;;;;;;;10.13;4.78;;;;;;;;;;6245724;28;20341;-79
2022/06/11 00:32:42;;;;;;;16.88;7.97;;;;;;;;;;6247170;28;20095;-80
2022/06/11 00:35:45;;;;;;;11.23;6.15;;;;;;;;;;6249822;28;20057;-79
2022/06/11 00:38:47;;;;;;;12.30;4.88;;;;;;;;;;6248469;28;20049;-79
2022/06/11 00:41:53;;;;;;;6.85;3.15;;;;;;;;;;6248446;28;20979;-79
2022/06/11 00:45:13;;;;;;;6.18;1.70;;;;;;;;;;6251659;28;20265;-79
2022/06/11 00:48:18;;;;;;;4.85;2.40;;;;;;;;;;6250939;28;20049;-79
2022/06/11 00:51:22;;;;;;;5.18;1.65;;;;;;;;;;6246755;28;20061;-79
2022/06/11 00:54:26;;;;;;;6.60;2.05;;;;;;;;;;6251559;28;20269;-79
2022/06/11 00:57:31;;;;;;;8.90;3.58;;;;;;;;;;6253494;28;20058;-79
2022/06/11 01:00:41;;;;;;;4.38;2.55;;;;;;;;;;6254176;28;20100;-79
2022/06/11 01:03:45;;;;;;;6.03;2.42;;;;;;;;;;6250898;28;20049;-79
2022/06/11 01:06:51;;;;;;;4.10;2.10;;;;;;;;;;6252654;28;20056;-78
2022/06/11 01:10:03;;;;;;;5.07;2.20;;;;;;;;;;6253283;28;20092;-80
2022/06/11 01:13:12;;;;;;;7.78;1.98;;;;;;;;;;6250393;28;20054;-79
2022/06/11 01:16:19;;;;;;;4.57;1.60;;;;;;;;;;6243750;28;20053;-80
2022/06/11 01:19:47;;;;;;;3.40;1.70;;;;;;;;;;6248526;28;20057;-79
2022/06/11 01:23:24;;;;;;;9.02;1.80;;;;;;;;;;6249944;28;20046;-79
2022/06/11 01:26:46;;;;;;;12.38;2.05;;;;;;;;;;6249735;28;20054;-79
2022/06/11 01:29:54;;;;;;;6.05;1.40;;;;;;;;;;6248396;28;20382;-79
2022/06/11 01:33:01;;;;;;;3.90;1.60;;;;;;;;;;6249341;28;20053;-79
2022/06/11 01:36:09;;;;;;;10.30;1.50;;;;;;;;;;6248818;28;20069;-80
2022/06/11 01:39:18;;;;;;;4.88;1.35;;;;;;;;;;6249239;28;20075;-79
2022/06/11 01:42:24;;;;;;;7.32;1.50;;;;;;;;;;6247347;28;20132;-79
2022/06/11 01:45:30;;;;;;;4.10;1.50;;;;;;;;;;6249234;28;20061;-79
2022/06/11 01:48:32;;;;;;;4.63;1.35;;;;;;;;;;6246361;28;20110;-79
2022/06/11 01:51:43;;;;;;;9.20;1.40;;;;;;;;;;6246980;28;20454;-79
2022/06/11 01:54:52;;;;;;;5.13;1.50;;;;;;;;;;6247056;28;20053;-79
2022/06/11 01:58:16;;;;;;;6.18;2.10;;;;;;;;;;6252937;28;20402;-79
2022/06/11 02:01:21;;;;;;;;;;;;;;;;;;6248174;28;20368;-80
2022/06/11 02:04:28;;;;;;;4.45;1.67;;;;;;;;;;6255287;28;20132;-79
2022/06/11 02:07:35;;;;;;;5.35;1.17;;;;;;;;;;6254688;28;20069;-79
2022/06/11 02:10:39;;;;;;;3.58;1.40;;;;;;;;;;6251589;28;20105;-79
2022/06/11 02:13:45;;;;;;;2.00;1.30;;;;;;;;;;6251220;28;20053;-79
2022/06/11 02:16:52;;;;;;;4.25;1.35;;;;;;;;;;6254688;28;20087;-79
2022/06/11 02:19:57;;;;;;;4.45;1.17;;;;;;;;;;6250595;28;20061;-79
2022/06/11 02:23:01;;;;;;;3.10;1.17;;;;;;;;;;6254982;28;20037;-79
2022/06/11 02:26:05;;;;;;;2.35;1.20;;;;;;;;;;6250676;28;20045;-80
2022/06/11 02:29:09;;;;;;;5.40;1.50;;;;;;;;;;6250478;28;20053;-79
2022/06/11 02:32:16;;;;;;;4.47;1.50;;;;;;;;;;6249762;28;20061;-79
2022/06/11 02:35:26;;;;;;;4.40;1.40;;;;;;;;;;6256330;28;20057;-79
2022/06/11 02:38:29;;;;;;;2.05;1.27;;;;;;;;;;6253023;28;20116;-79
2022/06/11 02:41:32;;;;;;;4.15;1.38;;;;;;;;;;6249999;28;20340;-79
2022/06/11 02:44:35;;;;;;;;;;;;;;;;;;6253355;28;20057;-79
2022/06/11 02:47:38;;;;;;;2.17;1.17;;;;;;;;;;6252859;28;20151;-78
2022/06/11 02:50:40;;;;;;;;;;;;;;;;;;6250550;28;20052;-79
2022/06/11 02:53:42;;;;;;;6.78;1.17;;;;;;;;;;6251560;28;19929;-79
2022/06/11 02:56:44;;;;;;;3.88;1.27;;;;;;;;;;6252403;28;20053;-79
2022/06/11 02:59:46;;;;;;;5.65;1.02;;;;;;;;;;6253826;28;20050;-79
2022/06/11 03:02:49;;;;;;;4.55;1.10;;;;;;;;;;6250127;28;20317;-78
2022/06/11 03:05:52;;;;;;;2.40;1.10;;;;;;;;;;6247095;28;20064;-79
2022/06/11 03:08:54;;;;;;;6.00;1.40;;;;;;;;;;6253216;28;20064;-78
2022/06/11 03:11:56;;;;;;;4.05;1.40;;;;;;;;;;6254482;28;20237;-79
2022/06/11 03:14:58;;;;;;;2.60;1.20;;;;;;;;;;6252206;28;20063;-79
2022/06/11 03:18:02;;;;;;;2.97;1.20;;;;;;;;;;6249121;28;20053;-79
2022/06/11 03:21:03;;;;;;;;;;;;;;;;;;6247730;28;20057;-79
2022/06/11 03:24:05;;;;;;;4.95;1.40;;;;;;;;;;6247126;28;19920;-79
2022/06/11 03:27:07;;;;;;;3.58;1.20;;;;;;;;;;6252693;28;20073;-79
2022/06/11 03:30:10;;;;;;;3.13;1.10;;;;;;;;;;6246936;28;20092;-79
2022/06/11 03:33:14;;;;;;;3.97;1.33;;;;;;;;;;6249946;28;20049;-79
2022/06/11 03:36:16;;;;;;;;;;;;;;;;;;6252365;28;20046;-79
2022/06/11 03:39:18;;;;;;;3.92;1.45;;;;;;;;;;6249566;28;19917;-78
2022/06/11 03:42:20;;;;;;;3.90;1.10;;;;;;;;;;6247956;28;20072;-78
2022/06/11 03:45:22;;;;;;;4.38;1.13;;;;;;;;;;6239543;28;20371;-78
2022/06/11 03:48:28;;;;;;;7.30;1.17;;;;;;;;;;6238272;28;20062;-80
2022/06/11 03:51:30;;;;;;;3.40;1.00;;;;;;;;;;6238013;28;20115;-79
2022/06/11 03:54:32;;;;;;;2.20;1.00;;;;;;;;;;6247256;28;20217;-79
2022/06/11 03:57:34;;;;;;;6.15;1.20;;;;;;;;;;6239650;28;20060;-79
2022/06/11 04:04:00;;;;;;;2.80;1.30;;;;;;;;;;6243123;28;20125;-79
2022/06/11 04:07:02;;;;;;;5.28;0.98;;;;;;;;;;6246666;28;20050;-80
2022/06/11 04:10:05;;;;;;;3.80;1.48;;;;;;;;;;6243329;28;20053;-78
2022/06/11 04:13:08;;;;;;;1.95;0.98;;;;;;;;;;6246707;28;20072;-79
2022/06/11 04:16:21;;;;;;;6.63;1.60;;;;;;;;;;6253379;28;20059;-79
2022/06/11 04:19:27;;;;;;;4.60;1.05;;;;;;;;;;6254969;28;20088;-79
2022/06/11 04:22:28;;;;;;;5.03;1.30;;;;;;;;;;6253185;28;20050;-80
2022/06/11 04:25:30;;;;;;;2.15;0.90;;;;;;;;;;6254843;28;20064;-80
2022/06/11 04:28:33;;;;;;;4.18;1.50;;;;;;;;;;6257774;28;20069;-80
2022/06/11 04:31:35;;;;;;;4.20;1.20;;;;;;;;;;6254082;28;20120;-79
2022/06/11 04:34:39;;;;;;;4.70;1.20;;;;;;;;;;6254072;28;20045;-80
2022/06/11 04:37:41;;;;;;;4.85;1.33;;;;;;;;;;6254225;28;20275;-80
2022/06/11 04:40:43;;;;;;;2.20;1.02;;;;;;;;;;6251077;28;20128;-80
2022/06/11 04:43:44;;;;;;;2.50;1.30;;;;;;;;;;6254080;28;20064;-79
2022/06/11 04:46:46;;;;;;;4.50;1.20;;;;;;;;;;6254718;28;20034;-80
2022/06/11 04:49:52;;;;;;;2.97;0.77;;;;;;;;;;6256563;28;20049;-79
2022/06/11 04:52:54;;;;;;;8.23;1.10;;;;;;;;;;6254019;28;20240;-78
2022/06/11 04:55:55;;;;;;;2.42;0.93;;;;;;;;;;6256344;28;20313;-79
2022/06/11 04:58:58;;;;;;;1.60;0.77;;;;;;;;;;6254751;28;20202;-79
2022/06/11 05:02:00;;;;;;;1.60;0.88;;;;;;;;;;6254142;28;20053;-79
2022/06/11 05:05:04;;;;;;;3.55;1.10;;;;;;;;;;6253153;28;20053;-79
2022/06/11 05:08:06;;;;;;;3.65;0.98;;;;;;;;;;6253085;28;20045;-79
2022/06/11 05:11:08;;;;;;;5.45;1.00;;;;;;;;;;6254168;28;20127;-79
2022/06/11 05:14:10;;;;;;;3.50;1.45;;;;;;;;;;6251160;28;20218;-79
2022/06/11 05:17:12;;;;;;;5.68;1.30;;;;;;;;;;6256508;28;20053;-79
2022/06/11 05:20:16;;;;;;;3.80;1.30;;;;;;;;;;6252219;28;20100;-79
2022/06/11 05:23:19;;;;;;;3.85;1.77;;;;;;;;;;6254084;28;20056;-79
2022/06/11 05:26:24;;;;;;;4.68;1.75;;;;;;;;;;6252447;28;20210;-79
2022/06/11 05:29:28;;;;;;;4.50;1.52;;;;;;;;;;6251208;28;20053;-79
2022/06/11 05:32:30;;;;;;;;;;;;;;;;;;6255433;28;20053;-79
2022/06/11 05:35:35;;;;;;;5.80;1.55;;;;;;;;;;6254023;28;19917;-79
2022/06/11 05:38:36;;;;;;;3.75;1.00;;;;;;;;;;6255251;28;20092;-79
2022/06/11 05:41:38;;;;;;;4.55;1.50;;;;;;;;;;6252927;28;20064;-79
2022/06/11 05:44:40;;;;;;;6.93;1.00;;;;;;;;;;6252833;28;20057;-79
2022/06/11 05:47:43;;;;;;;2.70;1.27;;;;;;;;;;6253557;28;21115;-79
2022/06/11 05:50:50;;;;;;;3.78;1.00;;;;;;;;;;6253606;28;20356;-79
2022/06/11 05:53:54;;;;;;;2.45;1.30;;;;;;;;;;6252729;28;20418;-79
2022/06/11 05:56:56;;;;;;;2.55;0.90;;;;;;;;;;6254671;28;20564;-79
2022/06/11 06:00:00;;;;;;;2.70;1.02;;;;;;;;;;6250547;28;20041;-80
2022/06/11 06:03:02;;;;;;;5.15;1.15;;;;;;;;;;6249912;28;20050;-80
2022/06/11 06:06:05;;;;;;;2.97;1.00;;;;;;;;;;6254072;28;20053;-79
2022/06/11 06:09:07;;;;;;;3.65;1.23;;;;;;;;;;6252944;28;20088;-79
2022/06/11 06:12:10;;;;;;;3.63;1.00;;;;;;;;;;6253255;28;20060;-79
2022/06/11 06:15:14;;;;;;;5.90;1.27;;;;;;;;;;6254684;28;20041;-79
2022/06/11 06:18:16;;;;;;;5.85;1.98;;;;;;;;;;6252042;28;20102;-79
2022/06/11 06:21:22;;;;;;;4.07;1.10;;;;;;;;;;6255305;28;20109;-80
2022/06/11 06:24:24;;;;;;;4.25;1.23;;;;;;;;;;6253637;28;20387;-81
2022/06/11 06:27:26;;;;;;;5.28;1.10;;;;;;;;;;6250388;28;20045;-80
2022/06/11 06:30:28;;;;;;;4.45;1.25;;;;;;;;;;6253600;28;20121;-80
2022/06/11 06:33:30;;;;;;;3.67;1.40;;;;;;;;;;6253043;28;20057;-80
2022/06/11 06:36:34;;;;;;;3.08;1.00;;;;;;;;;;6249476;28;20108;-79
2022/06/11 06:39:36;;;;;;;5.43;1.65;;;;;;;;;;6249555;28;20046;-80
2022/06/11 06:42:38;;;;;;;2.92;1.27;;;;;;;;;;6251188;28;20320;-80
2022/06/11 06:45:39;;;;;;;3.53;1.10;;;;;;;;;;6255679;28;20053;-80
2022/06/11 06:48:43;;;;;;;4.85;1.10;;;;;;;;;;6250836;28;20339;-80
2022/06/11 06:51:46;;;;;;;2.40;1.40;;;;;;;;;;6254216;28;20057;-79
2022/06/11 06:54:47;;;;;;;5.78;1.10;;;;;;;;;;6251985;28;20056;-80
2022/06/11 06:57:49;;;;;;;3.22;1.38;;;;;;;;;;6249482;28;20057;-79
2022/06/11 07:00:52;;;;;;;2.90;1.60;;;;;;;;;;6251698;28;20052;-81
2022/06/11 07:03:54;;;;;;;2.33;1.37;;;;;;;;;;6252766;28;20329;-81
2022/06/11 07:06:57;;;;;;;6.32;1.65;;;;;;;;;;6245896;28;20369;-80
2022/06/11 07:09:58;;;;;;;4.53;1.50;;;;;;;;;;6248840;28;20056;-78
2022/06/11 07:13:00;;;;;;;2.72;1.30;;;;;;;;;;6250494;28;20103;-81
2022/06/11 07:16:04;;;;;;;5.63;1.58;;;;;;;;;;6257402;28;20045;-80
2022/06/11 07:19:11;;;;;;;5.03;1.50;;;;;;;;;;6252743;28;20240;-80
2022/06/11 07:22:17;;;;;;;6.32;1.67;;;;;;;;;;6248785;28;20061;-81
2022/06/11 07:25:19;;;;;;;4.93;1.52;;;;;;;;;;6251048;28;20049;-80
2022/06/11 07:28:23;;;;;;;3.72;1.50;;;;;;;;;;6253879;28;20053;-80
2022/06/11 07:31:26;;;;;;;2.83;1.55;;;;;;;;;;6249636;28;20356;-80
2022/06/11 07:34:28;;;;;;;5.43;1.73;;;;;;;;;;6249233;28;20065;-80
2022/06/11 07:37:32;;;;;;;3.50;1.67;;;;;;;;;;6250448;28;20556;-79
2022/06/11 07:40:34;;;;;;;5.32;2.30;;;;;;;;;;6251783;28;20104;-81
2022/06/11 07:43:36;;;;;;;5.65;1.80;;;;;;;;;;6246283;28;20049;-79
2022/06/11 07:46:38;;;;;;;6.60;2.30;;;;;;;;;;6248993;28;20116;-79
2022/06/11 07:49:39;;;;;;;5.57;1.80;;;;;;;;;;6251489;28;20046;-80
2022/06/11 07:52:43;;;;;;;6.85;2.15;;;;;;;;;;6246090;28;20060;-80
2022/06/11 07:55:46;;;;;;;5.57;1.95;;;;;;;;;;6252491;28;20130;-79
2022/06/11 07:58:49;;;;;;;;;;;;;;;;;;6248151;28;20064;-79
2022/06/11 08:01:50;;;;;;;4.28;1.83;;;;;;;;;;6251505;28;20086;-79
2022/06/11 08:04:52;;;;;;;6.63;1.73;;;;;;;;;;6249637;28;20257;-78
2022/06/11 08:07:56;;;;;;;4.20;1.48;;;;;;;;;;6248649;28;20046;-80
2022/06/11 08:10:58;;;;;;;6.38;1.85;;;;;;;;;;6253131;28;20104;-78
2022/06/11 08:14:00;;;;;;;6.07;1.95;;;;;;;;;;6250647;28;20054;-79
2022/06/11 08:17:01;;;;;;;5.35;1.98;;;;;;;;;;6248357;28;20116;-79
2022/06/11 08:20:05;;;;;;;5.53;2.10;;;;;;;;;;6248868;28;20058;-81
2022/06/11 08:23:09;;;;;;;4.93;1.95;;;;;;;;;;6252209;28;20049;-78
2022/06/11 08:26:11;;;;;;;3.97;1.98;;;;;;;;;;6252294;28;20056;-79
2022/06/11 08:29:13;;;;;;;5.15;1.75;;;;;;;;;;6250272;28;20045;-79
2022/06/11 08:32:15;;;;;;;7.20;1.92;;;;;;;;;;6252046;28;20340;-80
2022/06/11 08:35:19;;;;;;;4.75;1.73;;;;;;;;;;6248635;28;20057;-79
2022/06/11 08:38:22;;;;;;;4.38;1.75;;;;;;;;;;6252209;28;20061;-79
2022/06/11 08:41:28;;;;;;;5.25;1.33;;;;;;;;;;6250024;28;20050;-78
2022/06/11 08:44:33;;;;;;;4.18;1.63;;;;;;;;;;6249181;28;20430;-78
2022/06/11 08:47:41;;;;;;;4.20;1.90;;;;;;;;;;6251559;28;20053;-80
2022/06/11 08:50:57;;;;;;;2.88;1.60;;;;;;;;;;6253225;28;20057;-79
2022/06/11 08:54:03;;;;;;;4.25;1.80;;;;;;;;;;6249734;28;20228;-79
2022/06/11 08:57:09;;;;;;;3.95;2.15;;;;;;;;;;6255123;28;20312;-79
2022/06/11 09:00:15;;;;;;;2.67;1.60;;;;;;;;;;6253622;28;20058;-79
2022/06/11 09:03:30;;;;;;;4.13;1.80;;;;;;;;;;6252137;28;20080;-78
2022/06/11 09:07:02;;;;;;;5.38;2.22;;;;;;;;;;6251693;28;20388;-79
2022/06/11 09:10:19;;;;;;;5.35;2.55;;;;;;;;;;6243111;28;20061;-79
2022/06/11 09:14:05;;;;;;;6.40;2.67;;;;;;;;;;6251339;28;20099;-79
2022/06/11 09:17:17;;;;;;;3.92;2.13;;;;;;;;;;6177828;28;20658;-79
2022/06/11 09:20:25;;;;;;;4.70;2.22;;;;;;;;;;6175772;28;20054;-81
2022/06/11 09:23:48;;;;;;;5.70;2.47;;;;;;;;;;6177559;28;20053;-80
2022/06/11 09:26:55;;;;;;;5.97;1.95;;;;;;;;;;6171422;28;20063;-80
2022/06/11 09:30:04;;;;;;;6.82;2.50;;;;;;;;;;6172682;28;20101;-79
2022/06/11 09:33:12;;;;;;;3.65;2.00;;;;;;;;;;6173657;28;20334;-79
2022/06/11 09:36:17;;;;;;;3.60;1.88;;;;;;;;;;6174502;28;20304;-79
2022/06/11 09:39:38;;;;;;;6.97;2.45;;;;;;;;;;6173820;28;20071;-79
2022/06/11 09:42:50;;;;;;;3.85;2.33;;;;;;;;;;6170688;28;20065;-79
2022/06/11 09:45:56;;;;;;;4.57;2.27;;;;;;;;;;6172349;28;20121;-80
2022/06/11 09:49:09;;;;;;;3.75;2.10;;;;;;;;;;6176091;28;20066;-79
2022/06/11 09:52:16;;;;;;;9.10;2.35;;;;;;;;;;6201601;28;20353;-79
2022/06/11 09:55:27;;;;;;;5.57;2.25;;;;;;;;;;6252256;28;20076;-80
2022/06/11 09:58:36;;;;;;;3.35;1.58;;;;;;;;;;6251998;28;20076;-81
2022/06/11 10:01:44;;;;;;;3.38;1.98;;;;;;;;;;6250176;28;20053;-82
2022/06/11 10:04:46;;;;;;;4.88;1.80;;;;;;;;;;6252631;28;20228;-82
2022/06/11 10:07:52;;;;;;;2.72;1.80;;;;;;;;;;6253555;28;20057;-82
2022/06/11 10:10:54;;;;;;;7.55;1.90;;;;;;;;;;6251291;28;20280;-81
2022/06/11 10:14:28;;;;;;;4.82;1.77;;;;;;;;;;6248929;28;20343;-82
2022/06/11 10:17:26;;;;;;;3.85;1.45;;;;;;;;;;6249696;28;20049;-81
2022/06/11 10:20:31;;;;;;;7.22;2.15;;;;;;;;;;6252788;28;20053;-81
2022/06/11 10:23:36;;;;;;;3.80;1.90;;;;;;;;;;6249575;28;20065;-82
2022/06/11 10:26:42;;;;;;;3.92;2.03;;;;;;;;;;6252364;28;20041;-82
2022/06/11 10:29:48;;;;;;;9.43;3.05;;;;;;;;;;6249822;28;20056;-82
2022/06/11 10:32:52;;;;;;;5.25;1.95;;;;;;;;;;6251809;28;20046;-82
2022/06/11 10:35:59;;;;;;;5.20;2.03;;;;;;;;;;6250941;28;20056;-81
2022/06/11 10:39:05;;;;;;;4.22;2.22;;;;;;;;;;6252158;28;20060;-83
2022/06/11 10:42:11;;;;;;;5.75;2.40;;;;;;;;;;6248262;28;20277;-80
2022/06/11 10:45:16;;;;;;;5.25;1.88;;;;;;;;;;6246253;28;20351;-80
2022/06/11 10:48:20;;;;;;;5.47;2.20;;;;;;;;;;6241081;28;20061;-82
2022/06/11 10:51:24;;;;;;;8.07;2.58;;;;;;;;;;6249125;28;20057;-82
2022/06/11 10:54:27;;;;;;;6.57;2.65;;;;;;;;;;6248925;28;20056;-81
2022/06/11 10:57:29;;;;;;;;;;;;;;;;;;6248141;28;20116;-81
2022/06/11 11:00:35;;;;;;;;;;;;;;;;;;6250833;28;19916;-81
2022/06/11 11:03:42;;;;;;;4.32;1.80;;;;;;;;;;6245653;28;19959;-82
2022/06/11 11:06:44;;;;;;;4.40;2.38;;;;;;;;;;6247194;28;20053;-82
2022/06/11 11:09:47;;;;;;;3.65;2.10;;;;;;;;;;6246858;28;20134;-81
2022/06/11 11:12:51;;;;;;;5.30;2.33;;;;;;;;;;6245224;28;20107;-80
2022/06/11 11:16:00;;;;;;;4.20;2.58;;;;;;;;;;6246560;28;20099;-82
2022/06/11 11:19:05;;;;;;;4.93;1.90;;;;;;;;;;6243907;28;20041;-81
2022/06/11 11:22:11;;;;;;;6.20;2.42;;;;;;;;;;6249501;28;20049;-81
2022/06/11 11:25:17;;;;;;;8.57;1.90;;;;;;;;;;6247599;28;20052;-81
2022/06/11 11:28:23;;;;;;;4.72;2.00;;;;;;;;;;6242039;28;20049;-81
2022/06/11 11:31:29;;;;;;;4.22;2.47;;;;;;;;;;6245956;28;20041;-80
2022/06/11 11:34:32;;;;;;;4.90;2.38;;;;;;;;;;6251312;28;20075;-80
2022/06/11 11:37:34;;;;;;;5.63;2.30;;;;;;;;;;6245960;28;20057;-81
2022/06/11 11:40:48;;;;;;;4.07;2.30;;;;;;;;;;6241787;28;20054;-80
2022/06/11 11:43:51;;;;;;;5.90;2.35;;;;;;;;;;6246168;28;20217;-80
2022/06/11 11:46:57;;;;;;;4.35;2.42;;;;;;;;;;6249663;28;20198;-79
2022/06/11 11:50:05;;;;;;;6.32;2.28;;;;;;;;;;6251926;28;20332;-80
2022/06/11 11:53:15;;;;;;;5.38;2.58;;;;;;;;;;6247497;28;20053;-80
2022/06/11 11:56:24;;;;;;;4.63;2.63;;;;;;;;;;6247607;28;20080;-80
2022/06/11 11:59:28;;;;;;;5.03;1.75;;;;;;;;;;6247942;28;20087;-80
2022/06/11 12:02:45;;;;;;;3.92;2.20;;;;;;;;;;6248374;28;20053;-80
2022/06/11 12:05:52;;;;;;;6.43;2.08;;;;;;;;;;6251156;28;20061;-79
2022/06/11 12:08:55;;;;;;;4.00;2.10;;;;;;;;;;6247856;28;20041;-80
2022/06/11 12:12:05;;;;;;;3.78;2.13;;;;;;;;;;6252522;28;20057;-80
2022/06/11 12:15:17;;;;;;;7.15;2.65;;;;;;;;;;6246213;28;20081;-80
2022/06/11 12:18:21;;;;;;;5.53;2.80;;;;;;;;;;6249792;28;20059;-80
2022/06/11 12:21:26;;;;;;;4.68;3.13;;;;;;;;;;6250434;28;20451;-81
2022/06/11 12:24:34;;;;;;;5.55;2.80;;;;;;;;;;6250411;28;20067;-80
2022/06/11 12:27:39;;;;;;;4.95;2.67;;;;;;;;;;6247765;28;20112;-80
2022/06/11 12:30:41;;;;;;;6.68;2.70;;;;;;;;;;6253611;28;20335;-80
2022/06/11 12:33:45;;;;;;;7.13;3.25;;;;;;;;;;6254402;28;20268;-82
2022/06/11 12:36:56;;;;;;;4.85;3.05;;;;;;;;;;6252827;28;20148;-82
2022/06/11 12:40:04;;;;;;;4.20;2.45;;;;;;;;;;6252545;28;20064;-81
2022/06/11 12:43:13;;;;;;;3.63;2.17;;;;;;;;;;6252300;28;20049;-82
2022/06/11 12:46:20;;;;;;;6.07;2.58;;;;;;;;;;6256017;28;20057;-82
2022/06/11 12:49:28;;;;;;;4.22;2.40;;;;;;;;;;6253226;28;20054;-82
2022/06/11 12:52:36;;;;;;;5.88;2.50;;;;;;;;;;6254710;28;20060;-81
2022/06/11 12:55:46;;;;;;;5.82;2.55;;;;;;;;;;6254612;28;20275;-82
2022/06/11 12:58:59;;;;;;;4.78;1.85;;;;;;;;;;6257218;28;20068;-80
2022/06/11 13:02:19;;;;;;;4.70;2.65;;;;;;;;;;6254074;28;20057;-82
2022/06/11 13:05:35;;;;;;;5.07;1.77;;;;;;;;;;6257322;28;20049;-81
2022/06/11 13:08:45;;;;;;;4.53;1.80;;;;;;;;;;6254760;28;20387;-82
2022/06/11 13:11:59;;;;;;;4.10;2.70;;;;;;;;;;6253901;28;20051;-82
2022/06/11 13:15:22;;;;;;;3.60;2.00;;;;;;;;;;6253092;28;20057;-80
2022/06/11 13:18:45;;;;;;;7.05;2.30;;;;;;;;;;6253885;28;20053;-81
2022/06/11 13:21:54;;;;;;;4.55;2.40;;;;;;;;;;6255432;28;20273;-82
2022/06/11 13:25:00;;;;;;;4.43;2.47;;;;;;;;;;6252134;28;20287;-82
2022/06/11 13:28:11;;;;;;;3.05;1.90;;;;;;;;;;6249162;28;20328;-82
2022/06/11 13:31:19;;;;;;;3.72;1.77;;;;;;;;;;6255629;28;20076;-82
2022/06/11 13:34:28;;;;;;;4.90;2.10;;;;;;;;;;6253542;28;20069;-81
2022/06/11 13:37:40;;;;;;;3.97;2.00;;;;;;;;;;6251624;28;20053;-82
2022/06/11 13:40:44;;;;;;;;;;;;;;;;;;6249316;28;20095;-82
2022/06/11 13:43:56;;;;;;;5.22;2.05;;;;;;;;;;6252445;28;19924;-81
2022/06/11 13:47:12;;;;;;;3.40;1.70;;;;;;;;;;6250698;28;20057;-81
2022/06/11 13:50:44;;;;;;;5.03;2.05;;;;;;;;;;6252371;28;20052;-82
2022/06/11 13:57:32;;;;;;;3.47;1.70;;;;;;;;;;6253015;28;19917;-81
2022/06/11 14:00:47;;;;;;;4.93;1.98;;;;;;;;;;6251828;28;20053;-82
2022/06/11 14:04:14;;;;;;;4.35;2.28;;;;;;;;;;6250925;28;20379;-81
2022/06/11 14:07:19;;;;;;;4.00;1.75;;;;;;;;;;6254822;28;20336;-81
2022/06/11 14:10:33;;;;;;;8.35;2.38;;;;;;;;;;6251827;28;20057;-81
2022/06/11 14:13:55;;;;;;;3.72;2.00;;;;;;;;;;6254582;28;20100;-82
2022/06/11 14:16:57;;;;;;;5.18;2.10;;;;;;;;;;6256171;28;20320;-81
2022/06/11 14:20:11;;;;;;;;;;;;;;;;;;6251573;28;20140;-81
2022/06/11 14:23:47;;;;;;;3.92;1.60;;;;;;;;;;6246132;28;19925;-82
2022/06/11 14:26:55;;;;;;;5.45;1.98;;;;;;;;;;6253286;28;20052;-77
2022/06/11 14:30:21;;;;;;;4.10;2.08;;;;;;;;;;6249006;28;20061;-76
2022/06/11 14:33:26;;;;;;;3.72;1.80;;;;;;;;;;6248653;28;20120;-76
2022/06/11 14:36:27;;;;;;;4.45;2.20;;;;;;;;;;6246919;28;20072;-77
2022/06/11 14:39:32;;;;;;;4.05;1.90;;;;;;;;;;6249730;28;20321;-78
2022/06/11 14:43:09;;;;;;;3.33;1.90;;;;;;;;;;6246561;28;20046;-77
2022/06/11 14:46:45;;;;;;;3.22;1.52;;;;;;;;;;6248602;28;20323;-78
2022/06/11 14:49:50;;;;;;;3.15;1.63;;;;;;;;;;6250993;28;20071;-80
2022/06/11 14:52:51;;;;;;;4.60;2.40;;;;;;;;;;6244729;28;20046;-76
2022/06/11 14:55:55;;;;;;;3.05;1.98;;;;;;;;;;6248067;28;21337;-76
2022/06/11 14:59:29;;;;;;;3.58;1.90;;;;;;;;;;6248402;28;20045;-77
2022/06/11 15:03:13;;;;;;;9.20;2.53;;;;;;;;;;6227608;28;20063;-78
2022/06/11 15:06:35;;;;;;;5.00;2.10;;;;;;;;;;6251823;28;20061;-77
2022/06/11 15:09:57;;;;;;;4.25;2.65;;;;;;;;;;6250690;28;20200;-77
2022/06/11 15:13:16;;;;;;;5.30;2.88;;;;;;;;;;6246811;28;20272;-78
2022/06/11 15:16:24;;;;;;;4.80;3.08;;;;;;;;;;6246780;28;20061;-78
2022/06/11 15:19:31;;;;;;;5.93;2.00;;;;;;;;;;6252537;28;20340;-77
2022/06/11 15:22:36;;;;;;;4.30;1.98;;;;;;;;;;6245093;28;20053;-78
2022/06/11 15:25:38;;;;;;;2.83;1.65;;;;;;;;;;6244799;28;20045;-75
2022/06/11 15:29:02;;;;;;;3.40;2.22;;;;;;;;;;6249881;28;20045;-78
2022/06/11 15:32:06;;;;;;;3.10;1.80;;;;;;;;;;6250117;28;20100;-78
2022/06/11 15:35:23;;;;;;;3.75;2.08;;;;;;;;;;6245961;28;20037;-79
2022/06/11 15:38:32;;;;;;;3.95;2.72;;;;;;;;;;6248588;28;20072;-77
2022/06/11 15:41:39;;;;;;;5.65;1.88;;;;;;;;;;6243503;28;20049;-79
2022/06/11 15:44:44;;;;;;;4.78;1.85;;;;;;;;;;6246831;28;20053;-78
2022/06/11 15:47:57;;;;;;;5.03;2.78;;;;;;;;;;6243645;28;20088;-78
2022/06/11 15:51:03;;;;;;;4.93;2.10;;;;;;;;;;6247299;28;20225;-78
2022/06/11 15:57:33;;;;;;;4.15;1.75;;;;;;;;;;6248581;28;20352;-79
2022/06/11 16:00:37;;;;;;;4.68;2.50;;;;;;;;;;6248112;28;20083;-78
2022/06/11 16:03:42;;;;;;;4.05;2.00;;;;;;;;;;6251132;28;20052;-77
2022/06/11 16:06:55;;;;;;;2.90;2.17;;;;;;;;;;6250492;28;20261;-77
2022/06/11 16:09:58;;;;;;;4.53;2.10;;;;;;;;;;6255873;28;20055;-77
2022/06/11 16:13:00;;;;;;;4.47;3.05;;;;;;;;;;6257247;28;20049;-78
2022/06/11 16:16:05;;;;;;;4.22;1.92;;;;;;;;;;6254155;28;20092;-77
2022/06/11 16:19:14;;;;;;;4.00;1.95;;;;;;;;;;6255508;28;20109;-78
2022/06/11 16:22:20;;;;;;;3.55;1.98;;;;;;;;;;6252397;28;20233;-77
2022/06/11 16:25:26;;;;;;;3.60;1.90;;;;;;;;;;6253058;28;20041;-77
2022/06/11 16:28:32;;;;;;;4.35;2.40;;;;;;;;;;6254285;28;20131;-78
2022/06/11 16:31:34;;;;;;;3.85;2.25;;;;;;;;;;6256206;28;20045;-79
2022/06/11 16:34:36;;;;;;;2.88;2.03;;;;;;;;;;6249600;28;20053;-78
2022/06/11 16:37:39;;;;;;;6.17;2.20;;;;;;;;;;6251322;28;20053;-77
2022/06/11 16:40:51;;;;;;;3.50;1.80;;;;;;;;;;6253870;28;20061;-78
2022/06/11 16:43:51;;;;;;;3.95;1.70;;;;;;;;;;6255299;28;20045;-78
2022/06/11 16:46:55;;;;;;;5.43;2.55;;;;;;;;;;6255703;28;20048;-78
2022/06/11 16:56:43;;;;;;;6.95;2.17;;;;;;;;;;6252128;28;20053;-79
2022/06/11 16:59:47;;;;;;;6.80;2.17;;;;;;;;;;6253066;28;20083;-79
2022/06/11 17:03:07;;;;;;;3.80;1.92;;;;;;;;;;6252561;28;20111;-78
2022/06/11 17:06:22;;;;;;;5.57;2.63;;;;;;;;;;6255682;28;20057;-79
2022/06/11 17:09:31;;;;;;;2.97;1.90;;;;;;;;;;6256644;28;20062;-79
2022/06/11 17:12:40;;;;;;;3.40;1.73;;;;;;;;;;6252927;28;20041;-79
2022/06/11 17:15:42;;;;;;;4.43;1.67;;;;;;;;;;6258126;28;20049;-77
2022/06/11 17:18:52;;;;;;;4.57;2.17;;;;;;;;;;6251581;28;20045;-77
2022/06/11 17:21:59;;;;;;;3.10;1.73;;;;;;;;;;6254047;28;20073;-78
2022/06/11 17:25:06;;;;;;;3.92;1.67;;;;;;;;;;6251377;28;20116;-78
2022/06/11 17:28:22;;;;;;;5.38;2.92;;;;;;;;;;6254985;28;20121;-78
2022/06/11 17:31:27;;;;;;;5.97;2.90;;;;;;;;;;6251771;28;20373;-78
2022/06/11 17:34:30;;;;;;;5.00;2.28;;;;;;;;;;6251605;28;20057;-77
2022/06/11 17:37:33;;;;;;;5.50;1.77;;;;;;;;;;6253363;28;20052;-78
2022/06/11 17:40:38;;;;;;;3.85;1.80;;;;;;;;;;6253397;28;20049;-78
2022/06/11 17:43:40;;;;;;;4.53;2.13;;;;;;;;;;6250025;28;20057;-78
2022/06/11 17:46:42;;;;;;;3.67;2.00;;;;;;;;;;6251297;28;20058;-78
2022/06/11 17:49:45;;;;;;;2.58;1.55;;;;;;;;;;6251513;28;20061;-78
2022/06/11 17:52:51;;;;;;;6.82;2.15;;;;;;;;;;6252701;28;20324;-79
2022/06/11 17:55:54;;;;;;;5.70;2.10;;;;;;;;;;6249915;28;20045;-78
2022/06/11 17:58:56;;;;;;;6.25;1.50;;;;;;;;;;6250998;28;20245;-78
2022/06/11 18:01:59;;;;;;;6.30;1.88;;;;;;;;;;6248956;28;20113;-78
2022/06/11 18:05:01;;;;;;;;;;;;;;;;;;6254283;28;20059;-78
2022/06/11 18:08:03;;;;;;;4.38;2.10;;;;;;;;;;6252596;28;19917;-77
2022/06/11 18:11:06;;;;;;;2.92;1.50;;;;;;;;;;6251435;28;20104;-78
2022/06/11 18:14:08;;;;;;;7.75;1.42;;;;;;;;;;6253391;28;20053;-79
2022/06/11 18:17:10;;;;;;;3.05;1.35;;;;;;;;;;6251459;28;20049;-77
2022/06/11 18:20:16;;;;;;;2.65;1.20;;;;;;;;;;6251113;28;20068;-78
2022/06/11 18:26:38;;;;;;;3.03;1.40;;;;;;;;;;6247439;28;20053;-79
2022/06/11 18:29:40;;;;;;;2.78;1.15;;;;;;;;;;6249899;28;20045;-79
2022/06/11 18:32:42;;;;;;;6.10;1.50;;;;;;;;;;6249510;28;20053;-78
2022/06/11 18:35:44;;;;;;;2.17;1.10;;;;;;;;;;6250141;28;20049;-79
2022/06/11 18:38:46;;;;;;;2.80;1.20;;;;;;;;;;6252400;28;20096;-78
2022/06/11 18:41:49;;;;;;;2.20;1.20;;;;;;;;;;6250615;28;20076;-77
2022/06/11 18:44:51;;;;;;;4.60;1.40;;;;;;;;;;6251346;28;20053;-77
2022/06/11 18:47:53;;;;;;;3.38;1.10;;;;;;;;;;6252097;28;20717;-78
2022/06/11 18:50:55;;;;;;;1.15;1.00;;;;;;;;;;6250455;28;20042;-77
2022/06/11 18:53:57;;;;;;;2.03;1.08;;;;;;;;;;6252424;28;20053;-78
2022/06/11 18:57:03;;;;;;;2.50;1.30;;;;;;;;;;6254965;28;20045;-78
2022/06/11 19:00:07;;;;;;;3.60;1.25;;;;;;;;;;6250353;28;20049;-78
2022/06/11 19:03:08;;;;;;;2.13;1.30;;;;;;;;;;6249894;28;20053;-78